Аэропорт: Звартноц. Ереван

ICAO: UDYZ

METAR:
2021-04-21 20:30:00
UDYZ 212030Z 03003KT 9999 FEW046 17/08 Q1014 R09/190065 NOSIG
METAR:
2021-04-21 17:02:00
TAF UDYZ 211702Z 2118/2218 04006KT 9999 SCT040 TEMPO 2118/2203 VRB16KT -TSRA BKN030CB